Terminal Aerodrome Forecast
Issued by NWS

Home | Current Version | Previous Version | Text Only | Print | Product List | Glossary On
Versions: 1 2 3 4 5 6 7 8 9 10 11 12 13 14 15 16 17 18 19 20 21 22 23 24 25 26 27 28 29 30 31
000
FTUS46 KSEW 260300 AAA
TAFSEA
TAF AMD
KSEA 260303Z 2603/2706 35008KT P6SM SCT040
     FM260600 03006KT P6SM FEW050
     FM261100 01004KT P6SM SCT020
     FM261300 VRB04KT P6SM SCT015
      TEMPO 2613/2616 BKN015
     FM261700 01006KT P6SM FEW025=

USA.gov is the U.S. government's official web portal to all federal, state and local government web resources and services.